Time;durP1;ratioP1;P1;durP2;ratioP2;P2;SDS_P1;SDS_P2;PMS_P1;PMS_P2;Temp;Humidity;BMP_temperature;BMP_pressure;BME280_temperature;BME280_humidity;BME280_pressure;Samples;Min_cycle;Max_cycle;Signal;HPM_P1;HPM_P2
2021/11/19 00:00:21;;;;;;;16.98;4.80;;;;;;;;;;5034449;28;20029;-36
2021/11/19 00:02:46;;;;;;;9.55;4.43;;;;;;;;;;5052596;28;20083;-36
2021/11/19 00:05:12;;;;;;;10.35;4.70;;;;;;;;;;5052412;28;20029;-37
2021/11/19 00:07:37;;;;;;;8.95;4.13;;;;;;;;;;5052033;28;20039;-37
2021/11/19 00:10:04;;;;;;;7.50;4.25;;;;;;;;;;5052164;28;20044;-37
2021/11/19 00:12:29;;;;;;;9.27;4.00;;;;;;;;;;5052140;28;20093;-37
2021/11/19 00:14:55;;;;;;;10.95;5.43;;;;;;;;;;5052117;28;20108;-36
2021/11/19 00:17:20;;;;;;;8.40;4.85;;;;;;;;;;5052164;28;20467;-37
2021/11/19 00:19:46;;;;;;;9.20;4.15;;;;;;;;;;5051940;28;20029;-36
2021/11/19 00:22:12;;;;;;;12.30;4.97;;;;;;;;;;5052254;28;20036;-37
2021/11/19 00:24:38;;;;;;;9.57;4.20;;;;;;;;;;5052200;28;20033;-36
2021/11/19 00:27:04;;;;;;;10.00;4.63;;;;;;;;;;5051844;28;20070;-36
2021/11/19 00:29:30;;;;;;;10.35;5.72;;;;;;;;;;5033903;28;20041;-36
2021/11/19 00:31:55;;;;;;;10.10;3.72;;;;;;;;;;5051860;28;20371;-36
2021/11/19 00:34:21;;;;;;;8.60;4.35;;;;;;;;;;5050468;28;20372;-36
2021/11/19 00:36:47;;;;;;;8.32;4.03;;;;;;;;;;5051730;28;20400;-36
2021/11/19 00:39:16;;;;;;;13.45;4.32;;;;;;;;;;5033633;28;20495;-36
2021/11/19 00:41:43;;;;;;;12.98;4.25;;;;;;;;;;5033784;28;20112;-37
2021/11/19 00:44:11;;;;;;;11.60;5.18;;;;;;;;;;5051581;28;20037;-37
2021/11/19 00:46:37;;;;;;;7.05;4.13;;;;;;;;;;5033655;28;20024;-36
2021/11/19 00:49:03;;;;;;;8.27;3.85;;;;;;;;;;5051739;28;20032;-36
2021/11/19 00:51:30;;;;;;;16.05;5.50;;;;;;;;;;5051386;28;20036;-36
2021/11/19 00:53:57;;;;;;;7.40;3.80;;;;;;;;;;5051536;28;20029;-37
2021/11/19 00:56:25;;;;;;;9.50;3.78;;;;;;;;;;5051368;28;20028;-36
2021/11/19 00:58:51;;;;;;;9.00;4.30;;;;;;;;;;5050108;28;20037;-36
2021/11/19 01:01:22;;;;;;;7.95;4.45;;;;;;;;;;5051639;28;20509;-36
2021/11/19 01:03:47;;;;;;;8.77;4.13;;;;;;;;;;5051220;28;20108;-37
2021/11/19 01:06:13;;;;;;;11.05;4.93;;;;;;;;;;5051454;28;20507;-36
2021/11/19 01:08:39;;;;;;;10.38;3.40;;;;;;;;;;5051171;28;20488;-36
2021/11/19 01:11:06;;;;;;;10.90;5.45;;;;;;;;;;5033214;28;20439;-37
2021/11/19 01:13:32;;;;;;;11.38;4.47;;;;;;;;;;5051190;28;20025;-37
2021/11/19 01:16:01;;;;;;;10.15;5.25;;;;;;;;;;5051474;28;20036;-36
2021/11/19 01:18:27;;;;;;;11.50;4.72;;;;;;;;;;5049916;28;20029;-36
2021/11/19 01:20:56;;;;;;;18.85;4.80;;;;;;;;;;5032930;28;20491;-36
2021/11/19 01:23:24;;;;;;;17.67;5.05;;;;;;;;;;5049969;28;20041;-36
2021/11/19 01:25:54;;;;;;;11.77;5.40;;;;;;;;;;5050984;28;20379;-39
2021/11/19 01:28:21;;;;;;;12.55;4.57;;;;;;;;;;5033294;28;20033;-36
2021/11/19 01:30:52;;;;;;;11.45;5.88;;;;;;;;;;5049649;28;20545;-37
2021/11/19 01:33:18;;;;;;;9.05;4.43;;;;;;;;;;5049748;28;20396;-37
2021/11/19 01:36:06;;;;;;;7.78;3.78;;;;;;;;;;5040173;28;20437;-36
2021/11/19 01:38:54;;;;;;;8.75;4.53;;;;;;;;;;5049160;28;20057;-36
2021/11/19 01:41:40;;;;;;;12.25;4.32;;;;;;;;;;5051000;28;20066;-37
2021/11/19 01:44:14;;;;;;;9.05;4.63;;;;;;;;;;5051008;28;20017;-37
2021/11/19 01:46:42;;;;;;;9.13;3.60;;;;;;;;;;5051090;28;20215;-37
2021/11/19 01:49:07;;;;;;;10.75;3.72;;;;;;;;;;5051099;28;20056;-36
2021/11/19 01:51:56;;;;;;;10.32;5.18;;;;;;;;;;5032869;28;20440;-37
2021/11/19 01:54:24;;;;;;;7.32;5.05;;;;;;;;;;5045091;28;20120;-36
2021/11/19 01:56:52;;;;;;;9.52;4.00;;;;;;;;;;5049541;28;20021;-35
2021/11/19 01:59:28;;;;;;;10.90;4.53;;;;;;;;;;5049526;28;20029;-36
2021/11/19 02:02:18;;;;;;;8.95;4.57;;;;;;;;;;5050559;28;20045;-37
2021/11/19 02:04:52;;;;;;;10.32;5.22;;;;;;;;;;5033633;28;20064;-36
2021/11/19 02:07:32;;;;;;;10.43;4.13;;;;;;;;;;5053285;28;20029;-36
2021/11/19 02:10:35;;;;;;;7.05;4.13;;;;;;;;;;5053214;28;20060;-37
2021/11/19 02:13:18;;;;;;;12.27;4.45;;;;;;;;;;5053233;28;20035;-36
2021/11/19 02:15:44;;;;;;;12.88;5.78;;;;;;;;;;5036314;28;20112;-36
2021/11/19 02:18:13;;;;;;;7.70;4.30;;;;;;;;;;5053163;28;20543;-36
2021/11/19 02:20:40;;;;;;;7.70;3.17;;;;;;;;;;5036290;28;20032;-36
2021/11/19 02:23:17;;;;;;;8.20;4.57;;;;;;;;;;5052992;28;20025;-36
2021/11/19 02:26:06;;;;;;;11.50;5.13;;;;;;;;;;5052895;28;20035;-36
2021/11/19 02:28:33;;;;;;;12.70;5.07;;;;;;;;;;5033306;28;20091;-36
2021/11/19 02:31:01;;;;;;;10.40;3.97;;;;;;;;;;5036011;28;20037;-37
2021/11/19 02:33:28;;;;;;;8.23;4.78;;;;;;;;;;5052881;28;20025;-36
2021/11/19 02:36:03;;;;;;;22.13;4.75;;;;;;;;;;5052632;28;20021;-36
2021/11/19 02:38:41;;;;;;;7.72;3.00;;;;;;;;;;5035961;28;20144;-36
2021/11/19 02:41:07;;;;;;;9.27;4.55;;;;;;;;;;5052578;28;20075;-36
2021/11/19 02:43:35;;;;;;;8.70;4.10;;;;;;;;;;5052488;28;20032;-37
2021/11/19 02:46:02;;;;;;;11.38;5.20;;;;;;;;;;5052669;28;20021;-36
2021/11/19 02:48:29;;;;;;;11.23;5.47;;;;;;;;;;5053809;28;20371;-36
2021/11/19 02:50:56;;;;;;;11.77;4.15;;;;;;;;;;5035621;28;20131;-36
2021/11/19 02:53:22;;;;;;;9.60;4.28;;;;;;;;;;5035765;28;20476;-36
2021/11/19 02:55:50;;;;;;;8.55;4.63;;;;;;;;;;5052349;28;20079;-37
2021/11/19 02:58:21;;;;;;;9.05;4.70;;;;;;;;;;5035997;28;20085;-36
2021/11/19 03:00:55;;;;;;;5.80;3.85;;;;;;;;;;5053499;28;20021;-37
2021/11/19 03:03:20;;;;;;;9.65;4.30;;;;;;;;;;5035634;28;20037;-36
2021/11/19 03:05:46;;;;;;;8.60;5.55;;;;;;;;;;5035452;28;20017;-39
2021/11/19 03:08:11;;;;;;;11.25;4.60;;;;;;;;;;5035636;28;20037;-36
2021/11/19 03:10:47;;;;;;;8.27;4.57;;;;;;;;;;5035193;28;20115;-36
2021/11/19 03:13:13;;;;;;;12.00;5.82;;;;;;;;;;5052156;28;20064;-36
2021/11/19 03:15:43;;;;;;;8.52;4.35;;;;;;;;;;5052213;28;20024;-36
2021/11/19 03:18:11;;;;;;;84.30;12.18;;;;;;;;;;5035338;28;20626;-36
2021/11/19 03:20:38;;;;;;;6.57;4.35;;;;;;;;;;5035137;28;20074;-36
2021/11/19 03:23:04;;;;;;;10.52;4.22;;;;;;;;;;5051837;28;20033;-36
2021/11/19 03:25:32;;;;;;;9.05;4.53;;;;;;;;;;5051854;28;20074;-38
2021/11/19 03:28:03;;;;;;;8.32;4.05;;;;;;;;;;5051753;28;20024;-36
2021/11/19 03:30:34;;;;;;;12.48;4.03;;;;;;;;;;5051668;28;20098;-36
2021/11/19 03:33:00;;;;;;;9.65;3.95;;;;;;;;;;5052891;28;20027;-36
2021/11/19 03:35:27;;;;;;;11.77;7.00;;;;;;;;;;5035114;28;20029;-37
2021/11/19 03:37:53;;;;;;;11.13;5.35;;;;;;;;;;5051419;28;20049;-36
2021/11/19 03:40:21;;;;;;;12.27;4.82;;;;;;;;;;5034791;28;20124;-36
2021/11/19 03:42:48;;;;;;;7.50;4.30;;;;;;;;;;5051522;28;20017;-36
2021/11/19 03:45:15;;;;;;;12.10;4.53;;;;;;;;;;5051449;28;20037;-36
2021/11/19 03:47:42;;;;;;;12.15;4.60;;;;;;;;;;5051349;28;20028;-36
2021/11/19 03:50:32;;;;;;;9.60;4.90;;;;;;;;;;5034847;28;20125;-36
2021/11/19 03:52:58;;;;;;;10.48;4.88;;;;;;;;;;5031975;28;20048;-36
2021/11/19 03:55:26;;;;;;;8.52;4.90;;;;;;;;;;5051222;28;20400;-36
2021/11/19 03:57:51;;;;;;;8.18;5.15;;;;;;;;;;5052780;28;20041;-36
2021/11/19 04:00:20;;;;;;;10.52;4.53;;;;;;;;;;5051156;28;20021;-36
2021/11/19 04:02:48;;;;;;;8.07;4.40;;;;;;;;;;5034384;28;20067;-36
2021/11/19 04:05:15;;;;;;;11.27;4.63;;;;;;;;;;5051130;28;20426;-36
2021/11/19 04:07:40;;;;;;;9.55;4.28;;;;;;;;;;5034263;28;20033;-36
2021/11/19 04:10:06;;;;;;;9.63;4.90;;;;;;;;;;5034274;28;20025;-36
2021/11/19 04:12:32;;;;;;;10.32;5.10;;;;;;;;;;5034296;28;20025;-36
2021/11/19 04:14:59;;;;;;;11.38;4.65;;;;;;;;;;5050835;28;20021;-36
2021/11/19 04:17:25;;;;;;;8.23;4.55;;;;;;;;;;5034278;28;20479;-36
2021/11/19 04:19:50;;;;;;;9.15;4.60;;;;;;;;;;5050621;28;20086;-36
2021/11/19 04:22:17;;;;;;;8.60;4.43;;;;;;;;;;5050760;28;20032;-36
2021/11/19 04:24:45;;;;;;;8.80;4.78;;;;;;;;;;5050623;28;20055;-37
2021/11/19 04:27:11;;;;;;;8.68;4.00;;;;;;;;;;5051694;28;20430;-36
2021/11/19 04:30:11;;;;;;;6.22;3.63;;;;;;;;;;5007295;28;20028;-36
2021/11/19 04:32:37;;;;;;;6.72;3.88;;;;;;;;;;5050561;28;20127;-36
2021/11/19 04:35:03;;;;;;;8.15;4.13;;;;;;;;;;5050462;28;20021;-36
2021/11/19 04:37:29;;;;;;;9.63;4.82;;;;;;;;;;5050274;28;20068;-36
2021/11/19 04:39:58;;;;;;;7.97;3.30;;;;;;;;;;5033748;28;20064;-36
2021/11/19 04:42:23;;;;;;;9.48;3.90;;;;;;;;;;5033902;28;20056;-36
2021/11/19 04:44:49;;;;;;;8.10;3.67;;;;;;;;;;5033652;28;20051;-36
2021/11/19 04:47:15;;;;;;;8.57;4.03;;;;;;;;;;5033693;28;20102;-36
2021/11/19 04:49:41;;;;;;;14.48;5.53;;;;;;;;;;5033547;28;20029;-37
2021/11/19 04:52:09;;;;;;;8.25;4.13;;;;;;;;;;5033692;28;20464;-36
2021/11/19 04:54:34;;;;;;;9.63;4.90;;;;;;;;;;5033586;28;20116;-36
2021/11/19 04:57:00;;;;;;;5.88;3.70;;;;;;;;;;5051543;28;20862;-36
2021/11/19 04:59:26;;;;;;;7.55;4.05;;;;;;;;;;5050013;28;20032;-36
2021/11/19 05:01:56;;;;;;;10.70;4.57;;;;;;;;;;5050281;28;20102;-36
2021/11/19 05:05:00;;;;;;;6.43;3.28;;;;;;;;;;4970355;28;20102;-36
2021/11/19 05:07:26;;;;;;;8.23;3.95;;;;;;;;;;4970238;28;20508;-37
2021/11/19 05:09:52;;;;;;;7.88;3.95;;;;;;;;;;4990706;28;20044;-36
2021/11/19 05:12:23;;;;;;;8.38;4.03;;;;;;;;;;5051530;28;20037;-36
2021/11/19 05:14:50;;;;;;;10.07;4.97;;;;;;;;;;5033263;28;20037;-36
2021/11/19 05:17:17;;;;;;;6.65;4.38;;;;;;;;;;5050005;28;20029;-36
2021/11/19 05:19:44;;;;;;;13.65;5.53;;;;;;;;;;5049660;28;20029;-36
2021/11/19 05:22:10;;;;;;;8.88;3.78;;;;;;;;;;5049956;28;20450;-36
2021/11/19 05:24:36;;;;;;;9.02;3.75;;;;;;;;;;5051133;28;20029;-36
2021/11/19 05:27:03;;;;;;;7.55;3.58;;;;;;;;;;5033117;28;20021;-36
2021/11/19 05:29:29;;;;;;;6.40;3.50;;;;;;;;;;5051043;28;20037;-36
2021/11/19 05:31:55;;;;;;;12.50;5.05;;;;;;;;;;5033089;28;20028;-36
2021/11/19 05:34:22;;;;;;;6.97;4.03;;;;;;;;;;5033211;28;20481;-36
2021/11/19 05:36:48;;;;;;;8.05;4.10;;;;;;;;;;5049700;28;20138;-36
2021/11/19 05:39:14;;;;;;;7.32;4.03;;;;;;;;;;5049639;28;20049;-36
2021/11/19 05:41:43;;;;;;;9.55;4.72;;;;;;;;;;5035109;28;20461;-36
2021/11/19 05:44:10;;;;;;;10.68;5.00;;;;;;;;;;5033741;28;20029;-36
2021/11/19 05:46:47;;;;;;;6.28;3.60;;;;;;;;;;5033831;28;20018;-36
2021/11/19 05:49:17;;;;;;;7.97;4.30;;;;;;;;;;5033509;28;20033;-36
2021/11/19 05:51:45;;;;;;;10.98;4.53;;;;;;;;;;5033692;28;20048;-36
2021/11/19 05:54:13;;;;;;;6.68;3.90;;;;;;;;;;5033686;28;20075;-36
2021/11/19 05:56:39;;;;;;;10.40;4.88;;;;;;;;;;5034972;28;20037;-36
2021/11/19 05:59:04;;;;;;;9.05;4.32;;;;;;;;;;5034899;28;20021;-36
2021/11/19 06:01:49;;;;;;;9.48;4.57;;;;;;;;;;5034959;28;20052;-37
2021/11/19 06:04:16;;;;;;;6.40;3.42;;;;;;;;;;5033489;28;20083;-42
2021/11/19 06:06:58;;;;;;;7.10;3.43;;;;;;;;;;5035010;28;20057;-36
2021/11/19 06:09:43;;;;;;;6.22;3.22;;;;;;;;;;5034586;28;20127;-36
2021/11/19 06:12:11;;;;;;;8.65;4.25;;;;;;;;;;5033361;28;20128;-36
2021/11/19 06:14:42;;;;;;;7.78;3.30;;;;;;;;;;5034497;28;20503;-36
2021/11/19 06:17:09;;;;;;;8.30;3.88;;;;;;;;;;5034761;28;20113;-36
2021/11/19 06:19:37;;;;;;;9.82;4.50;;;;;;;;;;5034502;28;20057;-36
2021/11/19 06:22:07;;;;;;;7.20;3.95;;;;;;;;;;5033190;28;20029;-36
2021/11/19 06:24:35;;;;;;;9.00;4.80;;;;;;;;;;5033063;28;20480;-36
2021/11/19 06:27:00;;;;;;;7.57;3.50;;;;;;;;;;5032885;28;20033;-36
2021/11/19 06:29:29;;;;;;;8.95;4.25;;;;;;;;;;5032945;28;20029;-36
2021/11/19 06:31:56;;;;;;;8.50;4.38;;;;;;;;;;5032765;28;20041;-36
2021/11/19 06:34:23;;;;;;;6.53;3.88;;;;;;;;;;5032933;28;20108;-36
2021/11/19 06:36:50;;;;;;;7.50;4.05;;;;;;;;;;5032803;28;20033;-37
2021/11/19 06:39:17;;;;;;;8.30;3.70;;;;;;;;;;5032712;28;20039;-36
2021/11/19 06:41:44;;;;;;;8.25;3.67;;;;;;;;;;5032717;28;20426;-36
2021/11/19 06:44:29;;;;;;;8.73;4.38;;;;;;;;;;5032709;28;20431;-36
2021/11/19 06:47:04;;;;;;;11.10;3.78;;;;;;;;;;5032738;28;20025;-36
2021/11/19 06:49:52;;;;;;;7.47;3.55;;;;;;;;;;5032231;28;20136;-36
2021/11/19 06:52:38;;;;;;;5.47;2.65;;;;;;;;;;5022459;28;20046;-36
2021/11/19 06:55:44;;;;;;;9.10;4.20;;;;;;;;;;5011641;28;20100;-36
2021/11/19 06:58:43;;;;;;;7.45;3.15;;;;;;;;;;5011310;28;20053;-36
2021/11/19 07:01:09;;;;;;;10.43;4.13;;;;;;;;;;5020510;28;20110;-36
2021/11/19 07:03:34;;;;;;;7.53;3.38;;;;;;;;;;5032294;28;20028;-36
2021/11/19 07:06:00;;;;;;;6.05;3.35;;;;;;;;;;5032223;28;20029;-36
2021/11/19 07:08:26;;;;;;;6.22;3.10;;;;;;;;;;5032424;28;20032;-36
2021/11/19 07:10:54;;;;;;;8.95;3.60;;;;;;;;;;5032009;28;20519;-36
2021/11/19 07:13:20;;;;;;;7.30;3.97;;;;;;;;;;5032201;28;20021;-36
2021/11/19 07:15:46;;;;;;;7.10;3.63;;;;;;;;;;5031978;28;20045;-36
2021/11/19 07:18:11;;;;;;;6.68;3.40;;;;;;;;;;5033441;28;20017;-36
2021/11/19 07:20:39;;;;;;;9.65;4.53;;;;;;;;;;5031933;28;20033;-36
2021/11/19 07:23:05;;;;;;;8.80;4.88;;;;;;;;;;5031984;28;20036;-36
2021/11/19 07:25:32;;;;;;;5.68;3.15;;;;;;;;;;5033570;28;20033;-36
2021/11/19 07:27:59;;;;;;;6.72;3.25;;;;;;;;;;5031750;28;20029;-36
2021/11/19 07:30:31;;;;;;;5.35;3.22;;;;;;;;;;5031818;28;20404;-36
2021/11/19 07:33:03;;;;;;;8.93;4.32;;;;;;;;;;5033388;28;20041;-36
2021/11/19 07:35:40;;;;;;;9.68;3.67;;;;;;;;;;5031772;28;20124;-36
2021/11/19 07:38:25;;;;;;;7.55;3.67;;;;;;;;;;5045968;28;20180;-35
2021/11/19 07:41:10;;;;;;;7.65;3.97;;;;;;;;;;5053125;28;20090;-36
2021/11/19 07:44:08;;;;;;;8.45;4.32;;;;;;;;;;5008485;28;20058;-35
2021/11/19 07:46:51;;;;;;;8.73;3.60;;;;;;;;;;5051503;28;20063;-36
2021/11/19 07:49:17;;;;;;;9.02;3.78;;;;;;;;;;5034755;28;20040;-36
2021/11/19 07:51:46;;;;;;;6.80;3.53;;;;;;;;;;5034753;28;20031;-36
2021/11/19 07:54:12;;;;;;;7.28;3.50;;;;;;;;;;5051386;28;20075;-37
2021/11/19 07:56:39;;;;;;;7.75;3.60;;;;;;;;;;5034523;28;20064;-35
2021/11/19 07:59:10;;;;;;;7.30;2.72;;;;;;;;;;5034651;28;20060;-36
2021/11/19 08:01:36;;;;;;;12.52;3.92;;;;;;;;;;5051742;28;20036;-37
2021/11/19 08:04:03;;;;;;;5.90;3.70;;;;;;;;;;5034401;28;20021;-36
2021/11/19 08:06:29;;;;;;;7.28;3.85;;;;;;;;;;5034484;28;20083;-36
2021/11/19 08:09:15;;;;;;;6.70;3.08;;;;;;;;;;5052178;28;20025;-36
2021/11/19 08:11:46;;;;;;;7.90;3.58;;;;;;;;;;5034183;28;20029;-36
2021/11/19 08:14:12;;;;;;;7.85;3.50;;;;;;;;;;5050948;28;20033;-36
2021/11/19 08:16:43;;;;;;;7.22;2.90;;;;;;;;;;5050948;28;20055;-36
2021/11/19 08:19:21;;;;;;;9.90;5.13;;;;;;;;;;5050825;28;20079;-36
2021/11/19 08:21:47;;;;;;;7.50;3.13;;;;;;;;;;5050685;28;20387;-36
2021/11/19 08:24:15;;;;;;;5.57;3.42;;;;;;;;;;5052329;28;20017;-36
2021/11/19 08:26:43;;;;;;;6.13;3.75;;;;;;;;;;5034152;28;20395;-36
2021/11/19 08:29:12;;;;;;;8.52;3.03;;;;;;;;;;5052137;28;20139;-36
2021/11/19 08:31:38;;;;;;;9.15;3.67;;;;;;;;;;5051963;28;20583;-36
2021/11/19 08:34:04;;;;;;;5.97;2.88;;;;;;;;;;5052092;28;20033;-36
2021/11/19 08:36:31;;;;;;;4.88;2.58;;;;;;;;;;5051903;28;20082;-36
2021/11/19 08:38:57;;;;;;;5.70;3.53;;;;;;;;;;5051510;28;20045;-36
2021/11/19 08:41:23;;;;;;;6.63;3.42;;;;;;;;;;5051668;28;20074;-35
2021/11/19 08:43:49;;;;;;;5.07;3.50;;;;;;;;;;5051663;28;20033;-36
2021/11/19 08:46:17;;;;;;;5.75;2.95;;;;;;;;;;5051561;28;20468;-36
2021/11/19 08:48:47;;;;;;;4.80;3.25;;;;;;;;;;5051518;28;20036;-36
2021/11/19 08:51:15;;;;;;;6.97;3.17;;;;;;;;;;5051485;28;20122;-36
2021/11/19 08:53:40;;;;;;;5.50;3.03;;;;;;;;;;5051402;28;20041;-36
2021/11/19 08:56:07;;;;;;;3.85;2.67;;;;;;;;;;5051856;28;20033;-36
2021/11/19 08:58:34;;;;;;;6.72;3.88;;;;;;;;;;5051408;28;20021;-36
2021/11/19 09:01:01;;;;;;;7.38;2.92;;;;;;;;;;5051393;28;20589;-36
2021/11/19 09:03:27;;;;;;;6.85;3.67;;;;;;;;;;5051407;28;20021;-36
2021/11/19 09:05:53;;;;;;;6.47;3.28;;;;;;;;;;5050017;28;20021;-36
2021/11/19 09:08:20;;;;;;;6.47;3.60;;;;;;;;;;5051392;28;20050;-36
2021/11/19 09:10:47;;;;;;;4.03;2.20;;;;;;;;;;5051156;28;20527;-36
2021/11/19 09:13:13;;;;;;;4.25;2.45;;;;;;;;;;5051573;28;20115;-36
2021/11/19 09:15:38;;;;;;;5.95;3.85;;;;;;;;;;5051214;28;20029;-36
2021/11/19 09:18:07;;;;;;;8.35;2.10;;;;;;;;;;5051201;28;20013;-36
2021/11/19 09:20:32;;;;;;;5.28;3.00;;;;;;;;;;5051471;28;20051;-36
2021/11/19 09:23:04;;;;;;;6.15;2.55;;;;;;;;;;5050984;28;20539;-36
2021/11/19 09:25:29;;;;;;;5.05;2.55;;;;;;;;;;5051491;28;20029;-36
2021/11/19 09:27:55;;;;;;;10.57;2.70;;;;;;;;;;5050995;28;20633;-36
2021/11/19 09:30:26;;;;;;;6.05;2.60;;;;;;;;;;5050925;28;20047;-36
2021/11/19 09:32:53;;;;;;;3.47;2.53;;;;;;;;;;5051265;28;20082;-36
2021/11/19 09:35:20;;;;;;;5.07;2.70;;;;;;;;;;5051053;28;20028;-37
2021/11/19 09:37:48;;;;;;;3.92;2.58;;;;;;;;;;5051065;28;20098;-36
2021/11/19 09:40:14;;;;;;;6.90;2.95;;;;;;;;;;5051050;28;20101;-36
2021/11/19 09:42:51;;;;;;;8.18;2.88;;;;;;;;;;5051002;28;20123;-36
2021/11/19 09:45:44;;;;;;;5.65;2.72;;;;;;;;;;5051203;28;20024;-36
2021/11/19 09:48:29;;;;;;;6.65;2.80;;;;;;;;;;5050979;28;20108;-36
2021/11/19 09:51:13;;;;;;;6.05;3.20;;;;;;;;;;5051024;28;20041;-36
2021/11/19 09:53:55;;;;;;;5.05;2.83;;;;;;;;;;5049657;28;20415;-36
2021/11/19 09:56:41;;;;;;;6.47;3.53;;;;;;;;;;5050916;28;20442;-36
2021/11/19 09:59:13;;;;;;;6.80;3.13;;;;;;;;;;5043386;28;20040;-36
2021/11/19 10:01:57;;;;;;;5.03;2.97;;;;;;;;;;5049504;28;20322;-36
2021/11/19 10:04:25;;;;;;;6.32;2.97;;;;;;;;;;5050649;28;20052;-36
2021/11/19 10:06:54;;;;;;;6.15;2.97;;;;;;;;;;5049407;28;20029;-36
2021/11/19 10:09:25;;;;;;;3.47;2.00;;;;;;;;;;5050920;28;20037;-37
2021/11/19 10:12:04;;;;;;;4.40;2.83;;;;;;;;;;5050504;28;20029;-36
2021/11/19 10:14:32;;;;;;;4.82;2.30;;;;;;;;;;5050805;28;20025;-36
2021/11/19 10:17:16;;;;;;;3.67;2.47;;;;;;;;;;5050645;28;20522;-36
2021/11/19 10:19:43;;;;;;;4.93;2.33;;;;;;;;;;5050425;28;20144;-36
2021/11/19 10:22:09;;;;;;;5.35;2.40;;;;;;;;;;5050635;28;20418;-36
2021/11/19 10:25:00;;;;;;;5.85;2.13;;;;;;;;;;5052770;28;20086;-36
2021/11/19 10:27:28;;;;;;;5.10;2.30;;;;;;;;;;5052175;28;20049;-36
2021/11/19 10:29:58;;;;;;;4.40;2.60;;;;;;;;;;5053920;28;20021;-36
2021/11/19 10:32:25;;;;;;;6.97;2.72;;;;;;;;;;5054478;28;20416;-36
2021/11/19 10:34:54;;;;;;;6.55;2.83;;;;;;;;;;5054321;28;20029;-36
2021/11/19 10:37:38;;;;;;;7.72;2.78;;;;;;;;;;5053915;28;20103;-36
2021/11/19 10:40:22;;;;;;;5.07;2.45;;;;;;;;;;5053841;28;20060;-36
2021/11/19 10:43:07;;;;;;;6.70;2.80;;;;;;;;;;5053946;28;20041;-36
2021/11/19 10:45:43;;;;;;;4.72;3.22;;;;;;;;;;5054214;28;20056;-40
2021/11/19 10:48:10;;;;;;;4.80;2.45;;;;;;;;;;5036047;28;20035;-36
2021/11/19 10:50:43;;;;;;;4.03;2.25;;;;;;;;;;5054057;28;20107;-36
2021/11/19 10:53:11;;;;;;;2.45;1.90;;;;;;;;;;5054150;28;20059;-37
2021/11/19 10:55:46;;;;;;;4.13;2.20;;;;;;;;;;5053721;28;20468;-36
2021/11/19 10:58:17;;;;;;;4.40;2.53;;;;;;;;;;5053989;28;20044;-37
2021/11/19 11:01:06;;;;;;;4.50;2.17;;;;;;;;;;5053540;28;20548;-36
2021/11/19 11:03:34;;;;;;;3.50;2.08;;;;;;;;;;5053763;28;20058;-36
2021/11/19 11:06:05;;;;;;;2.35;1.65;;;;;;;;;;5053812;28;20029;-36
2021/11/19 11:08:38;;;;;;;4.05;1.63;;;;;;;;;;5053412;28;20025;-36
2021/11/19 11:11:07;;;;;;;4.30;2.03;;;;;;;;;;5053300;28;20476;-36
2021/11/19 11:13:32;;;;;;;4.15;1.95;;;;;;;;;;5035587;28;20034;-36
2021/11/19 11:16:03;;;;;;;3.65;2.30;;;;;;;;;;5053176;28;20471;-35
2021/11/19 11:18:44;;;;;;;3.33;2.03;;;;;;;;;;5053305;28;20029;-36
2021/11/19 11:21:15;;;;;;;3.58;1.80;;;;;;;;;;5053329;28;20043;-36
2021/11/19 11:23:43;;;;;;;2.55;1.98;;;;;;;;;;5053259;28;20475;-36
2021/11/19 11:26:15;;;;;;;3.10;2.08;;;;;;;;;;5053439;28;20116;-37
2021/11/19 11:28:43;;;;;;;4.13;1.65;;;;;;;;;;5053465;28;20041;-36
2021/11/19 11:31:19;;;;;;;5.82;1.90;;;;;;;;;;5052966;28;20037;-36
2021/11/19 11:33:52;;;;;;;3.30;1.77;;;;;;;;;;5035331;28;20383;-36
2021/11/19 11:36:40;;;;;;;2.70;1.90;;;;;;;;;;5051963;28;20089;-37
2021/11/19 11:39:10;;;;;;;4.95;1.95;;;;;;;;;;5033027;28;20132;-36
2021/11/19 11:41:35;;;;;;;6.45;2.22;;;;;;;;;;5034989;28;20037;-36
2021/11/19 11:44:09;;;;;;;3.70;1.83;;;;;;;;;;5052821;28;20028;-36
2021/11/19 11:46:47;;;;;;;2.88;1.70;;;;;;;;;;5053004;28;20406;-36
2021/11/19 11:49:15;;;;;;;3.63;2.28;;;;;;;;;;5052708;28;20024;-36
2021/11/19 11:52:10;;;;;;;2.75;1.77;;;;;;;;;;5034805;28;20036;-36
2021/11/19 11:54:55;;;;;;;4.53;2.13;;;;;;;;;;5015651;28;20579;-36
2021/11/19 11:57:23;;;;;;;4.47;1.95;;;;;;;;;;5052570;28;20070;-36
2021/11/19 12:00:07;;;;;;;3.08;1.88;;;;;;;;;;5051138;28;20037;-36
2021/11/19 12:02:37;;;;;;;4.93;2.08;;;;;;;;;;5052456;28;20028;-36
2021/11/19 12:05:21;;;;;;;2.15;1.27;;;;;;;;;;5052348;28;20060;-36
2021/11/19 12:08:01;;;;;;;3.70;1.60;;;;;;;;;;5052261;28;20056;-38
2021/11/19 12:10:30;;;;;;;4.90;2.53;;;;;;;;;;5052207;28;20696;-36
2021/11/19 12:13:04;;;;;;;4.07;2.20;;;;;;;;;;5052246;28;20407;-36
2021/11/19 12:15:30;;;;;;;3.78;1.92;;;;;;;;;;5052605;28;20030;-36
2021/11/19 12:18:18;;;;;;;4.30;2.20;;;;;;;;;;5052126;28;20017;-36
2021/11/19 12:20:49;;;;;;;4.57;2.55;;;;;;;;;;5046365;28;20052;-36
2021/11/19 12:23:33;;;;;;;3.55;1.88;;;;;;;;;;5052145;28;20032;-36
2021/11/19 12:26:04;;;;;;;8.15;3.00;;;;;;;;;;5052111;28;20029;-36
2021/11/19 12:28:34;;;;;;;3.13;2.08;;;;;;;;;;5034110;28;20041;-36
2021/11/19 12:31:18;;;;;;;3.00;1.83;;;;;;;;;;5051787;28;20060;-36
2021/11/19 12:33:46;;;;;;;3.40;2.42;;;;;;;;;;5051895;28;20021;-36
2021/11/19 12:36:14;;;;;;;6.05;2.25;;;;;;;;;;5034081;28;20021;-36
2021/11/19 12:38:42;;;;;;;5.15;2.13;;;;;;;;;;5050395;28;20055;-36
2021/11/19 12:41:24;;;;;;;3.15;1.88;;;;;;;;;;5033841;28;20102;-36
2021/11/19 12:43:50;;;;;;;3.45;2.30;;;;;;;;;;5051737;28;20029;-36
2021/11/19 12:46:28;;;;;;;3.25;2.13;;;;;;;;;;5051347;28;20033;-37
2021/11/19 12:48:53;;;;;;;2.83;1.70;;;;;;;;;;5051514;28;20464;-36
2021/11/19 12:51:24;;;;;;;2.97;2.13;;;;;;;;;;5051539;28;20029;-37
2021/11/19 12:54:09;;;;;;;2.35;1.77;;;;;;;;;;5051539;28;20060;-36
2021/11/19 12:56:54;;;;;;;3.92;2.08;;;;;;;;;;5051458;28;20025;-36
2021/11/19 12:59:21;;;;;;;9.43;2.60;;;;;;;;;;5051511;28;20071;-36
2021/11/19 13:02:07;;;;;;;5.65;2.63;;;;;;;;;;5051338;28;20086;-36
2021/11/19 13:04:37;;;;;;;4.20;2.40;;;;;;;;;;5051303;28;20056;-40
2021/11/19 13:07:03;;;;;;;4.65;1.80;;;;;;;;;;5051311;28;20067;-36
2021/11/19 13:09:46;;;;;;;2.22;1.52;;;;;;;;;;5051270;28;20068;-36
2021/11/19 13:12:30;;;;;;;5.47;2.05;;;;;;;;;;5051647;28;20175;-36
2021/11/19 13:15:15;;;;;;;3.65;1.88;;;;;;;;;;5051158;28;20130;-36
2021/11/19 13:17:44;;;;;;;3.55;1.88;;;;;;;;;;5051161;28;20037;-36
2021/11/19 13:20:26;;;;;;;6.13;1.80;;;;;;;;;;5051207;28;20072;-36
2021/11/19 13:22:52;;;;;;;4.00;2.03;;;;;;;;;;5049921;28;20029;-36
2021/11/19 13:25:33;;;;;;;6.55;2.40;;;;;;;;;;5051276;28;20032;-36
2021/11/19 13:28:00;;;;;;;3.40;1.65;;;;;;;;;;5051076;28;20375;-36
2021/11/19 13:30:28;;;;;;;5.68;2.05;;;;;;;;;;5051353;28;20029;-36
2021/11/19 13:33:09;;;;;;;4.40;1.92;;;;;;;;;;5051266;28;20028;-36
2021/11/19 13:35:35;;;;;;;5.47;2.13;;;;;;;;;;5051117;28;20455;-36
2021/11/19 13:38:00;;;;;;;6.80;2.28;;;;;;;;;;5049714;28;20073;-36
2021/11/19 13:42:55;;;;;;;3.92;2.05;;;;;;;;;;5051048;28;20025;-36
2021/11/19 13:45:27;;;;;;;6.18;2.30;;;;;;;;;;5033000;28;20041;-36
2021/11/19 13:47:54;;;;;;;9.85;2.95;;;;;;;;;;5050913;28;20029;-36
2021/11/19 13:50:28;;;;;;;5.18;2.70;;;;;;;;;;5051131;28;20020;-36
2021/11/19 13:53:00;;;;;;;7.32;2.72;;;;;;;;;;5050821;28;20471;-38
2021/11/19 13:55:25;;;;;;;6.73;3.10;;;;;;;;;;5051181;28;20116;-36
2021/11/19 13:57:54;;;;;;;5.95;3.05;;;;;;;;;;5050782;28;20113;-36
2021/11/19 14:00:40;;;;;;;4.05;2.45;;;;;;;;;;5054263;28;20074;-36
2021/11/19 14:03:12;;;;;;;3.63;2.63;;;;;;;;;;5036516;28;20101;-36
2021/11/19 14:05:47;;;;;;;5.85;2.63;;;;;;;;;;5054942;28;20032;-36
2021/11/19 14:08:12;;;;;;;4.38;2.50;;;;;;;;;;5054640;28;20063;-36
2021/11/19 14:10:46;;;;;;;5.70;3.15;;;;;;;;;;5054549;28;20061;-36
2021/11/19 14:13:28;;;;;;;4.80;2.45;;;;;;;;;;5054865;28;20082;-36
2021/11/19 14:16:06;;;;;;;4.93;2.92;;;;;;;;;;5054338;28;20454;-36
2021/11/19 14:19:22;;;;;;;7.70;4.03;;;;;;;;;;5054706;28;20041;-36
2021/11/19 14:24:07;;;;;;;4.05;2.33;;;;;;;;;;5054580;28;20108;-36
2021/11/19 14:26:36;;;;;;;8.52;3.22;;;;;;;;;;5054408;28;20563;-36
2021/11/19 14:29:04;;;;;;;6.57;2.80;;;;;;;;;;5052685;28;20094;-36
2021/11/19 14:31:30;;;;;;;5.80;3.05;;;;;;;;;;5054185;28;20033;-37
2021/11/19 14:34:02;;;;;;;3.58;2.47;;;;;;;;;;5054171;28;20120;-36
2021/11/19 14:36:31;;;;;;;5.43;3.15;;;;;;;;;;5054211;28;20419;-36
2021/11/19 14:39:02;;;;;;;4.85;3.20;;;;;;;;;;5053784;28;20051;-37
2021/11/19 14:41:43;;;;;;;3.75;2.50;;;;;;;;;;5054243;28;20025;-37
2021/11/19 14:44:11;;;;;;;6.47;2.72;;;;;;;;;;5053911;28;20040;-36
2021/11/19 14:46:41;;;;;;;4.18;1.92;;;;;;;;;;5054056;28;20466;-36
2021/11/19 14:49:16;;;;;;;3.55;2.55;;;;;;;;;;5053738;28;20040;-36
2021/11/19 14:51:46;;;;;;;4.18;2.65;;;;;;;;;;5053834;28;20033;-36
2021/11/19 14:54:14;;;;;;;9.27;2.42;;;;;;;;;;5053769;28;20074;-36
2021/11/19 14:56:49;;;;;;;7.00;2.92;;;;;;;;;;5053747;28;20052;-36
2021/11/19 14:59:14;;;;;;;7.75;2.67;;;;;;;;;;5053774;28;20094;-36
2021/11/19 15:01:58;;;;;;;5.20;3.00;;;;;;;;;;5053641;28;20021;-36
2021/11/19 15:04:33;;;;;;;6.82;2.78;;;;;;;;;;5053582;28;20035;-36
2021/11/19 15:07:06;;;;;;;5.95;2.75;;;;;;;;;;5052445;28;20033;-36
2021/11/19 15:09:50;;;;;;;4.30;2.10;;;;;;;;;;5053322;28;20037;-36